LIPQ

Trieste–Friuli Venezia Giulia Airport

Trieste, Italy
TAF LIPQ 252300Z 2600/2624 VRB05KT CAVOK BECMG 2610/2612 19010KT TEMPO 2615/2618 TSRA BECMG 2616/2618 06010KT
Issued Valid From Valid To
Apr-25 @ 23:00 UTC
(4 hours ago)
Apr-26 @ 00:00 UTC
(3 hours ago)
Apr-27 @ 00:00 UTC
(in 21 hours)
Apr-26 @ 00:00 to Apr-26 @ 10:00
TAF LIPQ 252300Z 2600/2624 VRB05KT CAVOK
Wind Visibility Clouds Conditions
Variable at 5 knots 10,000+ meters
  • No significant clouds
Becoming Apr-26 @ 10:00 to Apr-26 @ 16:00
BECMG 2610/2612 19010KT
Wind Visibility Clouds Conditions
190° at 10 knots 10,000+ meters
  • No significant clouds
Temporary Apr-26 @ 15:00 to Apr-26 @ 18:00
TEMPO 2615/2618 TSRA
Conditions
  • Thunderstorm
  • Rain
Becoming Apr-26 @ 16:00 to Apr-27 @ 00:00
BECMG 2616/2618 06010KT
Wind Visibility Clouds Conditions
60° at 10 knots 10,000+ meters
  • No significant clouds
TAF LIPQ 252300Z 2600/2624 VRB05KT CAVOK BECMG 2610/2612 19010KT TEMPO 2615/2618 TSRA BECMG 2616/2618 06010KT
Issued Apr-25 @ 23:00 UTC
(4 hours ago)
Valid From Apr-26 @ 00:00 UTC
(3 hours ago)
Valid To Apr-27 @ 00:00 UTC
(in 21 hours)
Apr-26 @ 00:00 - Apr-26 @ 10:00
Wind Visibility
Variable at 5 knots 10,000+ meters
Clouds
  • No significant clouds
Conditions
Becoming Apr-26 @ 10:00 - Apr-26 @ 16:00
Wind Visibility
190° at 10 knots 10,000+ meters
Clouds
  • No significant clouds
Conditions
Temporary Apr-26 @ 15:00 - Apr-26 @ 18:00
Conditions
  • Thunderstorm
  • Rain
Becoming Apr-26 @ 16:00 - Apr-27 @ 00:00
Wind Visibility
60° at 10 knots 10,000+ meters
Clouds
  • No significant clouds
Conditions